sensor_id;sensor_type;location;lat;lon;timestamp;temperature;humidity
10314;DHT22;5202;49.138;10.090;2022-08-16T00:00:45;15.80;99.90
10314;DHT22;5202;49.138;10.090;2022-08-16T00:03:17;15.80;99.90
10314;DHT22;5202;49.138;10.090;2022-08-16T00:05:53;15.80;99.90
10314;DHT22;5202;49.138;10.090;2022-08-16T00:08:23;15.70;99.90
10314;DHT22;5202;49.138;10.090;2022-08-16T00:11:03;15.60;99.90
10314;DHT22;5202;49.138;10.090;2022-08-16T00:13:33;15.60;99.90
10314;DHT22;5202;49.138;10.090;2022-08-16T00:16:08;15.60;99.90
10314;DHT22;5202;49.138;10.090;2022-08-16T00:18:57;15.60;99.90
10314;DHT22;5202;49.138;10.090;2022-08-16T00:21:27;15.60;99.90
10314;DHT22;5202;49.138;10.090;2022-08-16T00:23:57;15.60;99.90
10314;DHT22;5202;49.138;10.090;2022-08-16T00:26:30;15.50;99.90
10314;DHT22;5202;49.138;10.090;2022-08-16T00:29:11;15.60;99.90
10314;DHT22;5202;49.138;10.090;2022-08-16T00:31:43;15.60;99.90
10314;DHT22;5202;49.138;10.090;2022-08-16T00:34:27;15.60;99.90
10314;DHT22;5202;49.138;10.090;2022-08-16T00:37:17;15.60;99.90
10314;DHT22;5202;49.138;10.090;2022-08-16T00:39:49;15.60;99.90
10314;DHT22;5202;49.138;10.090;2022-08-16T00:42:25;15.60;99.90
10314;DHT22;5202;49.138;10.090;2022-08-16T00:45:04;15.60;99.90
10314;DHT22;5202;49.138;10.090;2022-08-16T00:47:42;15.50;99.90
10314;DHT22;5202;49.138;10.090;2022-08-16T00:50:18;15.50;99.90
10314;DHT22;5202;49.138;10.090;2022-08-16T00:53:04;15.40;99.90
10314;DHT22;5202;49.138;10.090;2022-08-16T00:55:35;15.40;99.90
10314;DHT22;5202;49.138;10.090;2022-08-16T00:58:10;15.40;99.90
10314;DHT22;5202;49.138;10.090;2022-08-16T01:00:58;15.40;99.90
10314;DHT22;5202;49.138;10.090;2022-08-16T01:03:27;15.40;99.90
10314;DHT22;5202;49.138;10.090;2022-08-16T01:06:01;15.40;99.90
10314;DHT22;5202;49.138;10.090;2022-08-16T01:08:54;15.40;99.90
10314;DHT22;5202;49.138;10.090;2022-08-16T01:11:26;15.40;99.90
10314;DHT22;5202;49.138;10.090;2022-08-16T01:14:02;15.40;99.90
10314;DHT22;5202;49.138;10.090;2022-08-16T01:16:34;15.40;99.90
10314;DHT22;5202;49.138;10.090;2022-08-16T01:19:06;15.40;99.90
10314;DHT22;5202;49.138;10.090;2022-08-16T01:21:46;15.40;99.90
10314;DHT22;5202;49.138;10.090;2022-08-16T01:24:27;15.30;99.90
10314;DHT22;5202;49.138;10.090;2022-08-16T01:27:20;15.20;99.90
10314;DHT22;5202;49.138;10.090;2022-08-16T01:29:56;15.20;99.90
10314;DHT22;5202;49.138;10.090;2022-08-16T01:32:31;15.30;99.90
10314;DHT22;5202;49.138;10.090;2022-08-16T01:35:06;15.30;99.90
10314;DHT22;5202;49.138;10.090;2022-08-16T01:37:46;15.30;99.90
10314;DHT22;5202;49.138;10.090;2022-08-16T01:40:23;15.20;99.90
10314;DHT22;5202;49.138;10.090;2022-08-16T01:42:54;15.20;99.90
10314;DHT22;5202;49.138;10.090;2022-08-16T01:45:23;15.20;99.90
10314;DHT22;5202;49.138;10.090;2022-08-16T01:48:06;15.20;99.90
10314;DHT22;5202;49.138;10.090;2022-08-16T01:50:48;15.30;99.90
10314;DHT22;5202;49.138;10.090;2022-08-16T01:53:39;15.30;99.90
10314;DHT22;5202;49.138;10.090;2022-08-16T01:56:19;15.30;99.90
10314;DHT22;5202;49.138;10.090;2022-08-16T01:58:53;15.30;99.90
10314;DHT22;5202;49.138;10.090;2022-08-16T02:01:24;15.30;99.90
10314;DHT22;5202;49.138;10.090;2022-08-16T02:03:55;15.20;99.90
10314;DHT22;5202;49.138;10.090;2022-08-16T02:06:38;15.20;99.90
10314;DHT22;5202;49.138;10.090;2022-08-16T02:09:14;15.10;99.90
10314;DHT22;5202;49.138;10.090;2022-08-16T02:11:50;15.10;99.90
10314;DHT22;5202;49.138;10.090;2022-08-16T02:14:22;15.10;99.90
10314;DHT22;5202;49.138;10.090;2022-08-16T02:16:55;15.10;99.90
10314;DHT22;5202;49.138;10.090;2022-08-16T02:19:28;15.10;99.90
10314;DHT22;5202;49.138;10.090;2022-08-16T02:22:20;15.10;99.90
10314;DHT22;5202;49.138;10.090;2022-08-16T02:25:04;15.10;99.90
10314;DHT22;5202;49.138;10.090;2022-08-16T02:27:37;15.10;99.90
10314;DHT22;5202;49.138;10.090;2022-08-16T02:30:12;15.10;99.90
10314;DHT22;5202;49.138;10.090;2022-08-16T02:33:03;15.10;99.90
10314;DHT22;5202;49.138;10.090;2022-08-16T02:35:35;15.10;99.90
10314;DHT22;5202;49.138;10.090;2022-08-16T02:38:26;15.10;99.90
10314;DHT22;5202;49.138;10.090;2022-08-16T02:40:54;15.10;99.90
10314;DHT22;5202;49.138;10.090;2022-08-16T02:43:29;15.10;99.90
10314;DHT22;5202;49.138;10.090;2022-08-16T02:46:03;15.10;99.90
10314;DHT22;5202;49.138;10.090;2022-08-16T02:48:37;15.10;99.90
10314;DHT22;5202;49.138;10.090;2022-08-16T02:51:15;15.10;99.90
10314;DHT22;5202;49.138;10.090;2022-08-16T02:53:49;15.00;99.90
10314;DHT22;5202;49.138;10.090;2022-08-16T02:56:19;15.00;99.90
10314;DHT22;5202;49.138;10.090;2022-08-16T02:58:51;14.90;99.90
10314;DHT22;5202;49.138;10.090;2022-08-16T03:01:23;14.90;99.90
10314;DHT22;5202;49.138;10.090;2022-08-16T03:04:12;14.90;99.90
10314;DHT22;5202;49.138;10.090;2022-08-16T03:07:02;14.90;99.90
10314;DHT22;5202;49.138;10.090;2022-08-16T03:09:45;14.90;99.90
10314;DHT22;5202;49.138;10.090;2022-08-16T03:12:17;14.90;99.90
10314;DHT22;5202;49.138;10.090;2022-08-16T03:14:57;14.90;99.90
10314;DHT22;5202;49.138;10.090;2022-08-16T03:17:25;14.90;99.90
10314;DHT22;5202;49.138;10.090;2022-08-16T03:20:01;14.80;99.90
10314;DHT22;5202;49.138;10.090;2022-08-16T03:22:38;14.80;99.90
10314;DHT22;5202;49.138;10.090;2022-08-16T03:25:14;14.70;99.90
10314;DHT22;5202;49.138;10.090;2022-08-16T03:27:53;14.70;99.90
10314;DHT22;5202;49.138;10.090;2022-08-16T03:30:29;14.70;99.90
10314;DHT22;5202;49.138;10.090;2022-08-16T03:33:04;14.60;99.90
10314;DHT22;5202;49.138;10.090;2022-08-16T03:35:39;14.50;99.90
10314;DHT22;5202;49.138;10.090;2022-08-16T03:38:21;14.50;99.90
10314;DHT22;5202;49.138;10.090;2022-08-16T03:41:10;14.60;99.90
10314;DHT22;5202;49.138;10.090;2022-08-16T03:43:53;14.60;99.90
10314;DHT22;5202;49.138;10.090;2022-08-16T03:46:25;14.60;99.90
10314;DHT22;5202;49.138;10.090;2022-08-16T03:49:15;14.60;99.90
10314;DHT22;5202;49.138;10.090;2022-08-16T03:51:48;14.70;99.90
10314;DHT22;5202;49.138;10.090;2022-08-16T03:54:21;14.60;99.90
10314;DHT22;5202;49.138;10.090;2022-08-16T03:56:54;14.60;99.90
10314;DHT22;5202;49.138;10.090;2022-08-16T03:59:27;14.70;99.90
10314;DHT22;5202;49.138;10.090;2022-08-16T04:02:02;14.60;99.90
10314;DHT22;5202;49.138;10.090;2022-08-16T04:04:49;14.60;99.90
10314;DHT22;5202;49.138;10.090;2022-08-16T04:07:20;14.60;99.90
10314;DHT22;5202;49.138;10.090;2022-08-16T04:09:51;14.50;99.90
10314;DHT22;5202;49.138;10.090;2022-08-16T04:12:20;14.50;99.90
10314;DHT22;5202;49.138;10.090;2022-08-16T04:15:10;14.50;99.90
10314;DHT22;5202;49.138;10.090;2022-08-16T04:17:54;14.50;99.90
10314;DHT22;5202;49.138;10.090;2022-08-16T04:20:24;14.50;99.90
10314;DHT22;5202;49.138;10.090;2022-08-16T04:23:02;14.50;99.90
10314;DHT22;5202;49.138;10.090;2022-08-16T04:25:32;14.50;99.90
10314;DHT22;5202;49.138;10.090;2022-08-16T04:28:03;14.50;99.90
10314;DHT22;5202;49.138;10.090;2022-08-16T04:30:52;14.50;99.90
10314;DHT22;5202;49.138;10.090;2022-08-16T04:33:22;14.50;99.90
10314;DHT22;5202;49.138;10.090;2022-08-16T04:35:55;14.50;99.90
10314;DHT22;5202;49.138;10.090;2022-08-16T04:38:26;14.50;99.90
10314;DHT22;5202;49.138;10.090;2022-08-16T04:40:56;14.50;99.90
10314;DHT22;5202;49.138;10.090;2022-08-16T04:43:26;14.50;99.90
10314;DHT22;5202;49.138;10.090;2022-08-16T04:45:56;14.40;99.90
10314;DHT22;5202;49.138;10.090;2022-08-16T04:48:29;14.40;99.90
10314;DHT22;5202;49.138;10.090;2022-08-16T04:51:05;14.40;99.90
10314;DHT22;5202;49.138;10.090;2022-08-16T04:53:45;14.40;99.90
10314;DHT22;5202;49.138;10.090;2022-08-16T04:56:16;14.50;99.90
10314;DHT22;5202;49.138;10.090;2022-08-16T04:58:46;14.50;99.90
10314;DHT22;5202;49.138;10.090;2022-08-16T05:01:16;14.60;99.90
10314;DHT22;5202;49.138;10.090;2022-08-16T05:03:46;14.60;99.90
10314;DHT22;5202;49.138;10.090;2022-08-16T05:06:32;14.70;99.90
10314;DHT22;5202;49.138;10.090;2022-08-16T05:09:13;14.80;99.90
10314;DHT22;5202;49.138;10.090;2022-08-16T05:11:44;14.80;99.90
10314;DHT22;5202;49.138;10.090;2022-08-16T05:14:15;14.90;99.90
10314;DHT22;5202;49.138;10.090;2022-08-16T05:17:28;14.90;99.90
10314;DHT22;5202;49.138;10.090;2022-08-16T05:20:04;15.00;99.90
10314;DHT22;5202;49.138;10.090;2022-08-16T05:22:55;15.10;99.90
10314;DHT22;5202;49.138;10.090;2022-08-16T05:25:24;15.20;99.90
10314;DHT22;5202;49.138;10.090;2022-08-16T05:28:13;15.30;99.90
10314;DHT22;5202;49.138;10.090;2022-08-16T05:30:46;15.40;99.90
10314;DHT22;5202;49.138;10.090;2022-08-16T05:33:20;15.50;99.90
10314;DHT22;5202;49.138;10.090;2022-08-16T05:35:51;15.60;99.90
10314;DHT22;5202;49.138;10.090;2022-08-16T05:38:40;15.70;99.90
10314;DHT22;5202;49.138;10.090;2022-08-16T05:41:12;15.80;99.90
10314;DHT22;5202;49.138;10.090;2022-08-16T05:43:43;15.90;99.90
10314;DHT22;5202;49.138;10.090;2022-08-16T05:46:18;15.90;99.90
10314;DHT22;5202;49.138;10.090;2022-08-16T05:48:58;16.00;99.90
10314;DHT22;5202;49.138;10.090;2022-08-16T05:51:38;16.10;99.90
10314;DHT22;5202;49.138;10.090;2022-08-16T05:54:12;16.20;99.90
10314;DHT22;5202;49.138;10.090;2022-08-16T05:56:52;16.40;99.90
10314;DHT22;5202;49.138;10.090;2022-08-16T05:59:22;16.50;99.90
10314;DHT22;5202;49.138;10.090;2022-08-16T06:01:54;16.70;99.90
10314;DHT22;5202;49.138;10.090;2022-08-16T06:04:28;16.80;99.90
10314;DHT22;5202;49.138;10.090;2022-08-16T06:07:05;16.90;99.90
10314;DHT22;5202;49.138;10.090;2022-08-16T06:09:38;17.00;99.90
10314;DHT22;5202;49.138;10.090;2022-08-16T06:12:13;17.10;99.90
10314;DHT22;5202;49.138;10.090;2022-08-16T06:14:54;17.20;99.90
10314;DHT22;5202;49.138;10.090;2022-08-16T06:17:27;17.20;99.90
10314;DHT22;5202;49.138;10.090;2022-08-16T06:20:10;17.30;99.90
10314;DHT22;5202;49.138;10.090;2022-08-16T06:22:41;17.20;99.90
10314;DHT22;5202;49.138;10.090;2022-08-16T06:25:33;17.30;99.90
10314;DHT22;5202;49.138;10.090;2022-08-16T06:28:08;17.50;99.90
10314;DHT22;5202;49.138;10.090;2022-08-16T06:30:57;17.70;99.90
10314;DHT22;5202;49.138;10.090;2022-08-16T06:33:29;17.90;99.90
10314;DHT22;5202;49.138;10.090;2022-08-16T06:36:08;18.00;99.90
10314;DHT22;5202;49.138;10.090;2022-08-16T06:38:46;18.10;99.90
10314;DHT22;5202;49.138;10.090;2022-08-16T06:41:39;18.20;99.90
10314;DHT22;5202;49.138;10.090;2022-08-16T06:44:18;18.40;99.90
10314;DHT22;5202;49.138;10.090;2022-08-16T06:46:54;18.60;99.90
10314;DHT22;5202;49.138;10.090;2022-08-16T06:49:23;18.70;99.90
10314;DHT22;5202;49.138;10.090;2022-08-16T06:51:51;18.90;99.90
10314;DHT22;5202;49.138;10.090;2022-08-16T06:54:33;19.00;99.90
10314;DHT22;5202;49.138;10.090;2022-08-16T06:57:01;19.10;99.90
10314;DHT22;5202;49.138;10.090;2022-08-16T06:59:37;19.20;99.70
10314;DHT22;5202;49.138;10.090;2022-08-16T07:02:20;19.20;99.90
10314;DHT22;5202;49.138;10.090;2022-08-16T07:05:00;19.30;99.70
10314;DHT22;5202;49.138;10.090;2022-08-16T07:07:45;19.40;99.30
10314;DHT22;5202;49.138;10.090;2022-08-16T07:10:18;19.60;99.50
10314;DHT22;5202;49.138;10.090;2022-08-16T07:12:52;19.80;98.60
10314;DHT22;5202;49.138;10.090;2022-08-16T07:15:36;19.90;98.10
10314;DHT22;5202;49.138;10.090;2022-08-16T07:18:19;20.00;97.90
10314;DHT22;5202;49.138;10.090;2022-08-16T07:20:50;20.10;98.70
10314;DHT22;5202;49.138;10.090;2022-08-16T07:23:25;20.20;97.30
10314;DHT22;5202;49.138;10.090;2022-08-16T07:26:12;20.10;96.50
10314;DHT22;5202;49.138;10.090;2022-08-16T07:28:52;20.30;97.10
10314;DHT22;5202;49.138;10.090;2022-08-16T07:31:22;20.40;97.10
10314;DHT22;5202;49.138;10.090;2022-08-16T07:34:06;20.60;96.50
10314;DHT22;5202;49.138;10.090;2022-08-16T07:36:36;20.50;95.30
10314;DHT22;5202;49.138;10.090;2022-08-16T07:39:06;20.70;95.40
10314;DHT22;5202;49.138;10.090;2022-08-16T07:41:39;20.80;96.40
10314;DHT22;5202;49.138;10.090;2022-08-16T07:44:09;21.00;96.30
10314;DHT22;5202;49.138;10.090;2022-08-16T07:46:42;21.20;95.00
10314;DHT22;5202;49.138;10.090;2022-08-16T07:49:16;21.00;94.50
10314;DHT22;5202;49.138;10.090;2022-08-16T07:51:45;21.00;94.80
10314;DHT22;5202;49.138;10.090;2022-08-16T07:54:16;21.00;94.90
10314;DHT22;5202;49.138;10.090;2022-08-16T07:57:00;21.10;94.20
10314;DHT22;5202;49.138;10.090;2022-08-16T07:59:29;21.20;94.50
10314;DHT22;5202;49.138;10.090;2022-08-16T08:02:14;21.50;94.80
10314;DHT22;5202;49.138;10.090;2022-08-16T08:04:55;21.50;94.10
10314;DHT22;5202;49.138;10.090;2022-08-16T08:07:26;21.60;94.00
10314;DHT22;5202;49.138;10.090;2022-08-16T08:09:59;21.80;94.20
10314;DHT22;5202;49.138;10.090;2022-08-16T08:12:31;21.70;93.50
10314;DHT22;5202;49.138;10.090;2022-08-16T08:15:08;21.80;93.70
10314;DHT22;5202;49.138;10.090;2022-08-16T08:17:40;22.00;94.20
10314;DHT22;5202;49.138;10.090;2022-08-16T08:20:18;22.20;92.80
10314;DHT22;5202;49.138;10.090;2022-08-16T08:22:56;22.30;92.60
10314;DHT22;5202;49.138;10.090;2022-08-16T08:25:29;22.40;92.80
10314;DHT22;5202;49.138;10.090;2022-08-16T08:28:19;22.50;92.00
10314;DHT22;5202;49.138;10.090;2022-08-16T08:30:49;22.50;91.80
10314;DHT22;5202;49.138;10.090;2022-08-16T08:33:31;22.60;92.10
10314;DHT22;5202;49.138;10.090;2022-08-16T08:36:02;22.50;91.50
10314;DHT22;5202;49.138;10.090;2022-08-16T08:38:35;22.50;91.40
10314;DHT22;5202;49.138;10.090;2022-08-16T08:41:11;22.50;91.80
10314;DHT22;5202;49.138;10.090;2022-08-16T08:43:46;22.50;91.20
10314;DHT22;5202;49.138;10.090;2022-08-16T08:46:18;22.40;91.00
10314;DHT22;5202;49.138;10.090;2022-08-16T08:48:50;22.60;92.50
10314;DHT22;5202;49.138;10.090;2022-08-16T08:51:30;22.80;91.30
10314;DHT22;5202;49.138;10.090;2022-08-16T08:54:03;23.10;91.40
10314;DHT22;5202;49.138;10.090;2022-08-16T08:56:36;23.30;92.00
10314;DHT22;5202;49.138;10.090;2022-08-16T08:59:33;23.30;89.60
10314;DHT22;5202;49.138;10.090;2022-08-16T09:02:08;23.30;90.10
10314;DHT22;5202;49.138;10.090;2022-08-16T09:04:42;23.20;90.00
10314;DHT22;5202;49.138;10.090;2022-08-16T09:07:16;23.20;90.10
10314;DHT22;5202;49.138;10.090;2022-08-16T09:09:45;23.50;91.20
10314;DHT22;5202;49.138;10.090;2022-08-16T09:12:15;23.60;88.80
10314;DHT22;5202;49.138;10.090;2022-08-16T09:15:16;23.80;90.00
10314;DHT22;5202;49.138;10.090;2022-08-16T09:17:48;24.10;90.20
10314;DHT22;5202;49.138;10.090;2022-08-16T09:20:26;24.20;88.80
10314;DHT22;5202;49.138;10.090;2022-08-16T09:22:57;24.20;83.40
10314;DHT22;5202;49.138;10.090;2022-08-16T09:25:33;24.10;83.60
10314;DHT22;5202;49.138;10.090;2022-08-16T09:28:05;24.00;84.00
10314;DHT22;5202;49.138;10.090;2022-08-16T09:30:38;24.00;83.90
10314;DHT22;5202;49.138;10.090;2022-08-16T09:33:12;24.00;83.40
10314;DHT22;5202;49.138;10.090;2022-08-16T09:35:46;23.80;83.10
10314;DHT22;5202;49.138;10.090;2022-08-16T09:38:20;23.60;82.20
10314;DHT22;5202;49.138;10.090;2022-08-16T09:40:59;23.70;81.80
10314;DHT22;5202;49.138;10.090;2022-08-16T09:43:30;24.00;83.20
10314;DHT22;5202;49.138;10.090;2022-08-16T09:46:21;24.30;80.30
10314;DHT22;5202;49.138;10.090;2022-08-16T09:49:09;24.40;79.90
10314;DHT22;5202;49.138;10.090;2022-08-16T09:51:38;24.40;81.40
10314;DHT22;5202;49.138;10.090;2022-08-16T09:54:06;24.80;80.80
10314;DHT22;5202;49.138;10.090;2022-08-16T09:56:37;24.60;78.40
10314;DHT22;5202;49.138;10.090;2022-08-16T09:59:20;24.60;78.70
10314;DHT22;5202;49.138;10.090;2022-08-16T10:01:51;24.80;80.50
10314;DHT22;5202;49.138;10.090;2022-08-16T10:04:21;25.00;80.60
10314;DHT22;5202;49.138;10.090;2022-08-16T10:07:02;25.10;77.00
10314;DHT22;5202;49.138;10.090;2022-08-16T10:09:42;24.90;78.00
10314;DHT22;5202;49.138;10.090;2022-08-16T10:12:23;24.80;77.20
10314;DHT22;5202;49.138;10.090;2022-08-16T10:15:11;24.90;77.30
10314;DHT22;5202;49.138;10.090;2022-08-16T10:17:44;25.30;78.40
10314;DHT22;5202;49.138;10.090;2022-08-16T10:20:30;25.30;74.10
10314;DHT22;5202;49.138;10.090;2022-08-16T10:23:01;25.20;75.50
10314;DHT22;5202;49.138;10.090;2022-08-16T10:25:35;25.10;76.30
10314;DHT22;5202;49.138;10.090;2022-08-16T10:28:27;25.10;74.40
10314;DHT22;5202;49.138;10.090;2022-08-16T10:31:07;25.10;74.60
10314;DHT22;5202;49.138;10.090;2022-08-16T10:33:44;25.40;75.80
10314;DHT22;5202;49.138;10.090;2022-08-16T10:36:13;25.60;73.80
10314;DHT22;5202;49.138;10.090;2022-08-16T10:39:03;25.70;73.30
10314;DHT22;5202;49.138;10.090;2022-08-16T10:41:34;25.60;73.50
10314;DHT22;5202;49.138;10.090;2022-08-16T10:44:03;25.70;74.10
10314;DHT22;5202;49.138;10.090;2022-08-16T10:46:35;26.10;74.40
10314;DHT22;5202;49.138;10.090;2022-08-16T10:49:10;26.00;70.80
10314;DHT22;5202;49.138;10.090;2022-08-16T10:51:44;26.00;71.50
10314;DHT22;5202;49.138;10.090;2022-08-16T10:54:33;26.00;70.60
10314;DHT22;5202;49.138;10.090;2022-08-16T10:57:21;25.90;70.80
10314;DHT22;5202;49.138;10.090;2022-08-16T10:59:50;25.90;70.70
10314;DHT22;5202;49.138;10.090;2022-08-16T11:02:24;25.90;69.30
10314;DHT22;5202;49.138;10.090;2022-08-16T11:05:15;25.70;70.00
10314;DHT22;5202;49.138;10.090;2022-08-16T11:07:46;26.00;69.00
10314;DHT22;5202;49.138;10.090;2022-08-16T11:10:24;26.30;68.80
10314;DHT22;5202;49.138;10.090;2022-08-16T11:13:16;26.30;66.50
10314;DHT22;5202;49.138;10.090;2022-08-16T11:16:06;26.50;68.10
10314;DHT22;5202;49.138;10.090;2022-08-16T11:18:52;26.80;66.50
10314;DHT22;5202;49.138;10.090;2022-08-16T11:21:34;26.50;66.40
10314;DHT22;5202;49.138;10.090;2022-08-16T11:24:22;26.30;67.20
10314;DHT22;5202;49.138;10.090;2022-08-16T11:27:10;26.30;67.00
10314;DHT22;5202;49.138;10.090;2022-08-16T11:29:53;26.50;66.10
10314;DHT22;5202;49.138;10.090;2022-08-16T11:32:25;26.60;66.60
10314;DHT22;5202;49.138;10.090;2022-08-16T11:34:58;26.80;66.00
10314;DHT22;5202;49.138;10.090;2022-08-16T11:37:43;26.50;66.70
10314;DHT22;5202;49.138;10.090;2022-08-16T11:40:35;26.70;65.90
10314;DHT22;5202;49.138;10.090;2022-08-16T11:43:10;26.60;66.70
10314;DHT22;5202;49.138;10.090;2022-08-16T11:45:43;26.40;65.60
10314;DHT22;5202;49.138;10.090;2022-08-16T11:48:20;26.20;66.50
10314;DHT22;5202;49.138;10.090;2022-08-16T11:50:50;26.20;67.60
10314;DHT22;5202;49.138;10.090;2022-08-16T11:53:20;26.20;67.60
10314;DHT22;5202;49.138;10.090;2022-08-16T11:55:51;26.10;66.70
10314;DHT22;5202;49.138;10.090;2022-08-16T11:58:22;26.20;66.30
10314;DHT22;5202;49.138;10.090;2022-08-16T12:00:53;26.20;67.60
10314;DHT22;5202;49.138;10.090;2022-08-16T12:03:25;26.50;67.00
10314;DHT22;5202;49.138;10.090;2022-08-16T12:06:06;26.70;66.70
10314;DHT22;5202;49.138;10.090;2022-08-16T12:08:53;27.10;65.50
10314;DHT22;5202;49.138;10.090;2022-08-16T12:11:28;27.00;65.60
10314;DHT22;5202;49.138;10.090;2022-08-16T12:13:58;27.30;64.00
10314;DHT22;5202;49.138;10.090;2022-08-16T12:16:26;27.80;65.40
10314;DHT22;5202;49.138;10.090;2022-08-16T12:19:00;28.10;63.20
10314;DHT22;5202;49.138;10.090;2022-08-16T12:21:30;27.80;59.50
10314;DHT22;5202;49.138;10.090;2022-08-16T12:24:20;27.60;60.20
10314;DHT22;5202;49.138;10.090;2022-08-16T12:26:50;27.20;62.70
10314;DHT22;5202;49.138;10.090;2022-08-16T12:29:20;27.30;63.50
10314;DHT22;5202;49.138;10.090;2022-08-16T12:31:51;27.70;62.30
10314;DHT22;5202;49.138;10.090;2022-08-16T12:34:37;27.60;62.10
10314;DHT22;5202;49.138;10.090;2022-08-16T12:37:19;27.30;62.40
10314;DHT22;5202;49.138;10.090;2022-08-16T12:39:52;27.00;60.60
10314;DHT22;5202;49.138;10.090;2022-08-16T12:42:23;26.90;62.60
10314;DHT22;5202;49.138;10.090;2022-08-16T12:45:01;27.10;63.10
10314;DHT22;5202;49.138;10.090;2022-08-16T12:47:30;27.30;62.90
10314;DHT22;5202;49.138;10.090;2022-08-16T12:50:18;27.50;62.50
10314;DHT22;5202;49.138;10.090;2022-08-16T12:52:46;27.80;62.50
10314;DHT22;5202;49.138;10.090;2022-08-16T12:55:20;28.00;61.80
10314;DHT22;5202;49.138;10.090;2022-08-16T12:57:59;28.30;63.10
10314;DHT22;5202;49.138;10.090;2022-08-16T13:00:29;28.50;61.30
10314;DHT22;5202;49.138;10.090;2022-08-16T13:03:01;28.30;60.30
10314;DHT22;5202;49.138;10.090;2022-08-16T13:05:34;28.30;60.80
10314;DHT22;5202;49.138;10.090;2022-08-16T13:08:22;28.40;58.60
10314;DHT22;5202;49.138;10.090;2022-08-16T13:10:58;28.00;58.20
10314;DHT22;5202;49.138;10.090;2022-08-16T13:13:28;27.80;57.20
10314;DHT22;5202;49.138;10.090;2022-08-16T13:16:00;27.60;57.10
10314;DHT22;5202;49.138;10.090;2022-08-16T13:18:46;27.60;57.30
10314;DHT22;5202;49.138;10.090;2022-08-16T13:21:20;27.70;56.60
10314;DHT22;5202;49.138;10.090;2022-08-16T13:23:51;27.80;56.90
10314;DHT22;5202;49.138;10.090;2022-08-16T13:26:23;27.90;56.50
10314;DHT22;5202;49.138;10.090;2022-08-16T13:28:52;28.10;56.40
10314;DHT22;5202;49.138;10.090;2022-08-16T13:31:21;28.20;56.10
10314;DHT22;5202;49.138;10.090;2022-08-16T13:33:50;28.70;56.90
10314;DHT22;5202;49.138;10.090;2022-08-16T13:36:24;29.30;56.00
10314;DHT22;5202;49.138;10.090;2022-08-16T13:39:14;29.70;54.70
10314;DHT22;5202;49.138;10.090;2022-08-16T13:41:44;29.90;54.30
10314;DHT22;5202;49.138;10.090;2022-08-16T13:44:20;30.00;52.70
10314;DHT22;5202;49.138;10.090;2022-08-16T13:47:08;30.10;51.90
10314;DHT22;5202;49.138;10.090;2022-08-16T13:49:38;29.80;53.60
10314;DHT22;5202;49.138;10.090;2022-08-16T13:52:09;29.60;52.50
10314;DHT22;5202;49.138;10.090;2022-08-16T13:54:38;29.30;53.30
10314;DHT22;5202;49.138;10.090;2022-08-16T13:57:08;29.10;53.20
10314;DHT22;5202;49.138;10.090;2022-08-16T13:59:37;29.20;52.90
10314;DHT22;5202;49.138;10.090;2022-08-16T14:02:06;29.60;53.20
10314;DHT22;5202;49.138;10.090;2022-08-16T14:05:04;30.00;53.30
10314;DHT22;5202;49.138;10.090;2022-08-16T14:07:56;30.00;52.50
10314;DHT22;5202;49.138;10.090;2022-08-16T14:10:25;29.90;51.40
10314;DHT22;5202;49.138;10.090;2022-08-16T14:12:54;29.70;51.80
10314;DHT22;5202;49.138;10.090;2022-08-16T14:15:23;28.80;52.00
10314;DHT22;5202;49.138;10.090;2022-08-16T14:17:51;28.70;54.30
10314;DHT22;5202;49.138;10.090;2022-08-16T14:20:39;28.90;54.00
10314;DHT22;5202;49.138;10.090;2022-08-16T14:23:14;29.20;52.70
10314;DHT22;5202;49.138;10.090;2022-08-16T14:25:49;29.00;53.70
10314;DHT22;5202;49.138;10.090;2022-08-16T14:28:21;28.60;52.80
10314;DHT22;5202;49.138;10.090;2022-08-16T14:30:52;28.10;54.50
10314;DHT22;5202;49.138;10.090;2022-08-16T14:33:20;28.10;54.10
10314;DHT22;5202;49.138;10.090;2022-08-16T14:35:49;28.10;53.50
10314;DHT22;5202;49.138;10.090;2022-08-16T14:38:17;28.30;54.40
10314;DHT22;5202;49.138;10.090;2022-08-16T14:40:50;28.60;53.10
10314;DHT22;5202;49.138;10.090;2022-08-16T14:43:23;28.90;54.00
10314;DHT22;5202;49.138;10.090;2022-08-16T14:45:55;28.90;51.90
10314;DHT22;5202;49.138;10.090;2022-08-16T14:48:23;28.60;52.40
10314;DHT22;5202;49.138;10.090;2022-08-16T14:50:53;28.30;52.10
10314;DHT22;5202;49.138;10.090;2022-08-16T14:53:22;28.20;53.70
10314;DHT22;5202;49.138;10.090;2022-08-16T14:55:52;28.10;53.00
10314;DHT22;5202;49.138;10.090;2022-08-16T14:58:21;28.10;53.70
10314;DHT22;5202;49.138;10.090;2022-08-16T15:01:04;27.90;52.60
10314;DHT22;5202;49.138;10.090;2022-08-16T15:03:36;27.80;53.40
10314;DHT22;5202;49.138;10.090;2022-08-16T15:06:10;27.80;52.70
10314;DHT22;5202;49.138;10.090;2022-08-16T15:08:42;28.00;53.30
10314;DHT22;5202;49.138;10.090;2022-08-16T15:11:11;28.30;52.90
10314;DHT22;5202;49.138;10.090;2022-08-16T15:13:41;28.60;53.00
10314;DHT22;5202;49.138;10.090;2022-08-16T15:16:10;28.70;51.40
10314;DHT22;5202;49.138;10.090;2022-08-16T15:18:38;28.70;52.40
10314;DHT22;5202;49.138;10.090;2022-08-16T15:21:06;28.70;51.90
10314;DHT22;5202;49.138;10.090;2022-08-16T15:23:35;28.40;51.60
10314;DHT22;5202;49.138;10.090;2022-08-16T15:26:07;28.40;52.00
10314;DHT22;5202;49.138;10.090;2022-08-16T15:28:46;28.50;52.90
10314;DHT22;5202;49.138;10.090;2022-08-16T15:31:16;28.70;51.70
10314;DHT22;5202;49.138;10.090;2022-08-16T15:33:47;28.60;52.50
10314;DHT22;5202;49.138;10.090;2022-08-16T15:36:24;28.40;52.00
10314;DHT22;5202;49.138;10.090;2022-08-16T15:38:54;28.40;52.20
10314;DHT22;5202;49.138;10.090;2022-08-16T15:41:57;28.80;52.50
10314;DHT22;5202;49.138;10.090;2022-08-16T15:44:29;28.80;52.00
10314;DHT22;5202;49.138;10.090;2022-08-16T15:47:19;28.50;51.90
10314;DHT22;5202;49.138;10.090;2022-08-16T15:49:54;28.40;52.40
10314;DHT22;5202;49.138;10.090;2022-08-16T15:52:25;28.20;52.40
10314;DHT22;5202;49.138;10.090;2022-08-16T15:54:57;28.00;52.50
10314;DHT22;5202;49.138;10.090;2022-08-16T15:57:50;28.10;53.70
10314;DHT22;5202;49.138;10.090;2022-08-16T16:00:20;28.20;53.60
10314;DHT22;5202;49.138;10.090;2022-08-16T16:02:59;28.30;53.40
10314;DHT22;5202;49.138;10.090;2022-08-16T16:05:48;28.40;53.10
10314;DHT22;5202;49.138;10.090;2022-08-16T16:08:20;28.50;53.40
10314;DHT22;5202;49.138;10.090;2022-08-16T16:10:52;28.60;53.40
10314;DHT22;5202;49.138;10.090;2022-08-16T16:13:21;28.70;53.00
10314;DHT22;5202;49.138;10.090;2022-08-16T16:15:53;28.80;53.00
10314;DHT22;5202;49.138;10.090;2022-08-16T16:18:25;28.90;53.50
10314;DHT22;5202;49.138;10.090;2022-08-16T16:20:57;29.00;52.50
10314;DHT22;5202;49.138;10.090;2022-08-16T16:23:30;29.10;52.20
10314;DHT22;5202;49.138;10.090;2022-08-16T16:26:00;29.00;51.60